sensor_id;sensor_type;location;lat;lon;timestamp;pressure;altitude;pressure_sealevel;temperature;humidity
35908;BME280;22003;50.320;8.054;2023-03-04T00:00:59;100538.94;;;-3.48;100.00
35908;BME280;22003;50.320;8.054;2023-03-04T03:46:16;100349.56;;;-1.55;100.00
35908;BME280;22003;50.320;8.054;2023-03-04T03:48:41;100371.41;;;-1.22;100.00
35908;BME280;22003;50.320;8.054;2023-03-04T03:51:07;100345.56;;;-1.30;100.00
35908;BME280;22003;50.320;8.054;2023-03-04T03:53:32;100331.63;;;-1.26;100.00
35908;BME280;22003;50.320;8.054;2023-03-04T03:55:57;100359.94;;;-1.11;100.00
35908;BME280;22003;50.320;8.054;2023-03-04T03:58:23;100364.16;;;-1.07;100.00
35908;BME280;22003;50.320;8.054;2023-03-04T04:00:50;100401.38;;;-0.63;100.00
35908;BME280;22003;50.320;8.054;2023-03-04T04:03:16;100398.53;;;-0.13;100.00
35908;BME280;22003;50.320;8.054;2023-03-04T04:05:41;100368.44;;;0.09;100.00
35908;BME280;22003;50.320;8.054;2023-03-04T04:08:11;100267.69;;;-0.23;100.00
35908;BME280;22003;50.320;8.054;2023-03-04T04:10:37;100340.75;;;0.39;100.00
35908;BME280;22003;50.320;8.054;2023-03-04T04:13:02;100339.34;;;0.59;100.00
35908;BME280;22003;50.320;8.054;2023-03-04T04:15:27;100337.59;;;0.59;99.02
35908;BME280;22003;50.320;8.054;2023-03-04T04:17:52;100273.63;;;0.15;99.14
35908;BME280;22003;50.320;8.054;2023-03-04T04:20:18;100373.00;;;0.68;98.71
35908;BME280;22003;50.320;8.054;2023-03-04T04:22:43;100332.13;;;0.68;98.29
35908;BME280;22003;50.320;8.054;2023-03-04T04:25:08;100295.69;;;0.65;97.31
35908;BME280;22003;50.320;8.054;2023-03-04T04:27:35;100315.81;;;0.91;96.73
35908;BME280;22003;50.320;8.054;2023-03-04T04:30:00;100349.34;;;1.03;96.37
35908;BME280;22003;50.320;8.054;2023-03-04T04:32:25;100342.69;;;0.93;96.29
35908;BME280;22003;50.320;8.054;2023-03-04T04:34:50;100331.41;;;0.93;96.36
35908;BME280;22003;50.320;8.054;2023-03-04T04:37:16;100325.38;;;0.91;95.90
35908;BME280;22003;50.320;8.054;2023-03-04T04:39:41;100304.47;;;0.92;95.86
35908;BME280;22003;50.320;8.054;2023-03-04T04:42:09;100369.75;;;1.20;95.53
35908;BME280;22003;50.320;8.054;2023-03-04T04:44:34;100275.41;;;0.75;95.37
35908;BME280;22003;50.320;8.054;2023-03-04T04:47:03;100285.13;;;0.70;94.75
35908;BME280;22003;50.320;8.054;2023-03-04T04:49:30;100298.47;;;0.89;94.88
35908;BME280;22003;50.320;8.054;2023-03-04T04:51:55;100282.81;;;0.89;94.94
35908;BME280;22003;50.320;8.054;2023-03-04T04:54:20;100367.91;;;1.24;94.32
35908;BME280;22003;50.320;8.054;2023-03-04T04:56:46;100356.22;;;1.36;93.82
35908;BME280;22003;50.320;8.054;2023-03-04T04:59:11;100311.28;;;1.26;93.89
35908;BME280;22003;50.320;8.054;2023-03-04T05:01:36;100285.81;;;1.04;93.45
35908;BME280;22003;50.320;8.054;2023-03-04T05:04:02;100297.44;;;0.94;93.80
35908;BME280;22003;50.320;8.054;2023-03-04T05:06:27;100318.69;;;1.12;94.23
35908;BME280;22003;50.320;8.054;2023-03-04T05:08:52;100312.69;;;1.08;94.29
35908;BME280;22003;50.320;8.054;2023-03-04T05:11:18;100292.72;;;1.07;93.95
35908;BME280;22003;50.320;8.054;2023-03-04T05:13:44;100359.56;;;1.41;93.30
35908;BME280;22003;50.320;8.054;2023-03-04T05:16:10;100321.84;;;1.21;93.44
35908;BME280;22003;50.320;8.054;2023-03-04T05:18:35;100335.69;;;1.25;93.51
35908;BME280;22003;50.320;8.054;2023-03-04T05:21:02;100366.34;;;1.46;93.30
35908;BME280;22003;50.320;8.054;2023-03-04T05:23:30;100343.63;;;1.20;93.10
35908;BME280;22003;50.320;8.054;2023-03-04T05:25:56;100326.13;;;1.24;93.51
35908;BME280;22003;50.320;8.054;2023-03-04T05:28:21;100325.19;;;1.26;92.63
35908;BME280;22003;50.320;8.054;2023-03-04T05:30:47;100313.50;;;1.38;92.64
35908;BME280;22003;50.320;8.054;2023-03-04T05:33:13;100370.66;;;1.75;92.24
35908;BME280;22003;50.320;8.054;2023-03-04T05:35:40;100261.81;;;0.93;92.38
35908;BME280;22003;50.320;8.054;2023-03-04T05:38:07;100341.22;;;1.42;92.83
35908;BME280;22003;50.320;8.054;2023-03-04T05:40:33;100295.34;;;1.07;92.58
35908;BME280;22003;50.320;8.054;2023-03-04T05:42:59;100321.66;;;1.27;92.53
35908;BME280;22003;50.320;8.054;2023-03-04T05:45:25;100378.94;;;1.62;92.73
35908;BME280;22003;50.320;8.054;2023-03-04T05:47:52;100338.22;;;1.28;92.68
35908;BME280;22003;50.320;8.054;2023-03-04T05:50:18;100368.66;;;1.55;93.14
35908;BME280;22003;50.320;8.054;2023-03-04T05:52:44;100369.88;;;1.45;93.70
35908;BME280;22003;50.320;8.054;2023-03-04T05:55:10;100369.63;;;1.53;92.90
35908;BME280;22003;50.320;8.054;2023-03-04T05:57:35;100292.22;;;1.24;92.77
35908;BME280;22003;50.320;8.054;2023-03-04T06:00:01;100363.06;;;1.68;91.16
35908;BME280;22003;50.320;8.054;2023-03-04T06:02:26;100328.50;;;1.31;91.94
35908;BME280;22003;50.320;8.054;2023-03-04T06:04:52;100319.56;;;1.39;91.93
35908;BME280;22003;50.320;8.054;2023-03-04T06:07:17;100335.63;;;1.54;91.19
35908;BME280;22003;50.320;8.054;2023-03-04T06:09:42;100328.94;;;1.46;90.98
35908;BME280;22003;50.320;8.054;2023-03-04T06:12:11;100379.34;;;1.76;91.19
35908;BME280;22003;50.320;8.054;2023-03-04T06:14:36;100355.09;;;1.72;91.54
35908;BME280;22003;50.320;8.054;2023-03-04T06:17:02;100277.00;;;1.09;91.59
35908;BME280;22003;50.320;8.054;2023-03-04T06:19:27;100373.66;;;1.35;92.59
35908;BME280;22003;50.320;8.054;2023-03-04T06:21:52;100357.66;;;1.46;92.40
35908;BME280;22003;50.320;8.054;2023-03-04T06:24:18;100395.72;;;1.81;91.65
35908;BME280;22003;50.320;8.054;2023-03-04T06:26:43;100372.34;;;1.78;91.35
35908;BME280;22003;50.320;8.054;2023-03-04T06:29:08;100289.28;;;1.05;91.57
35908;BME280;22003;50.320;8.054;2023-03-04T06:31:33;100340.63;;;1.34;91.11
35908;BME280;22003;50.320;8.054;2023-03-04T06:33:59;100371.81;;;1.67;91.17
35908;BME280;22003;50.320;8.054;2023-03-04T06:36:24;100366.41;;;1.73;90.58
35908;BME280;22003;50.320;8.054;2023-03-04T06:38:49;100349.50;;;1.56;91.08
35908;BME280;22003;50.320;8.054;2023-03-04T06:41:15;100378.22;;;1.56;91.90
35908;BME280;22003;50.320;8.054;2023-03-04T06:43:40;100323.59;;;1.22;91.67
35908;BME280;22003;50.320;8.054;2023-03-04T06:46:06;100414.97;;;1.78;90.25
35908;BME280;22003;50.320;8.054;2023-03-04T06:48:32;100353.88;;;1.56;91.23
35908;BME280;22003;50.320;8.054;2023-03-04T06:51:04;100382.06;;;1.73;90.65
35908;BME280;22003;50.320;8.054;2023-03-04T06:53:29;100291.38;;;1.22;90.95
35908;BME280;22003;50.320;8.054;2023-03-04T06:55:55;100362.97;;;1.43;90.52
35908;BME280;22003;50.320;8.054;2023-03-04T06:58:20;100347.69;;;1.58;90.93
35908;BME280;22003;50.320;8.054;2023-03-04T07:00:45;100356.81;;;1.73;91.13
35908;BME280;22003;50.320;8.054;2023-03-04T07:03:13;100395.03;;;1.76;90.33
35908;BME280;22003;50.320;8.054;2023-03-04T07:05:45;100371.56;;;1.74;91.34
35908;BME280;22003;50.320;8.054;2023-03-04T07:08:14;100248.44;;;1.04;89.84
35908;BME280;22003;50.320;8.054;2023-03-04T07:10:39;100420.22;;;1.77;91.79
35908;BME280;22003;50.320;8.054;2023-03-04T07:13:05;100425.25;;;1.83;92.31
35908;BME280;22003;50.320;8.054;2023-03-04T07:15:30;100393.91;;;1.83;91.39
35908;BME280;22003;50.320;8.054;2023-03-04T07:17:55;100380.91;;;1.81;90.86
35908;BME280;22003;50.320;8.054;2023-03-04T07:20:21;100381.97;;;1.76;90.68
35908;BME280;22003;50.320;8.054;2023-03-04T07:22:46;100441.91;;;2.35;90.09
35908;BME280;22003;50.320;8.054;2023-03-04T07:25:11;100327.91;;;1.50;90.56
35908;BME280;22003;50.320;8.054;2023-03-04T07:27:37;100424.38;;;2.10;90.12
35908;BME280;22003;50.320;8.054;2023-03-04T07:30:04;100389.09;;;1.97;91.21
35908;BME280;22003;50.320;8.054;2023-03-04T07:32:29;100320.00;;;1.25;91.18
35908;BME280;22003;50.320;8.054;2023-03-04T07:34:55;100427.91;;;2.09;90.08
35908;BME280;22003;50.320;8.054;2023-03-04T07:37:20;100415.06;;;2.30;90.66
35908;BME280;22003;50.320;8.054;2023-03-04T07:39:45;100354.03;;;1.78;90.08
35908;BME280;22003;50.320;8.054;2023-03-04T07:42:10;100354.22;;;1.72;90.26
35908;BME280;22003;50.320;8.054;2023-03-04T07:44:35;100368.50;;;1.88;89.70
35908;BME280;22003;50.320;8.054;2023-03-04T07:47:01;100310.22;;;1.59;88.65
35908;BME280;22003;50.320;8.054;2023-03-04T07:49:26;100400.31;;;2.27;89.05
35908;BME280;22003;50.320;8.054;2023-03-04T07:51:51;100402.69;;;2.35;88.58
35908;BME280;22003;50.320;8.054;2023-03-04T07:54:17;100456.88;;;2.56;88.80
35908;BME280;22003;50.320;8.054;2023-03-04T07:56:44;100402.88;;;2.29;88.72
35908;BME280;22003;50.320;8.054;2023-03-04T07:59:09;100435.13;;;2.54;88.33
35908;BME280;22003;50.320;8.054;2023-03-04T08:01:36;100453.19;;;2.62;89.05
35908;BME280;22003;50.320;8.054;2023-03-04T08:04:03;100424.31;;;2.40;89.29
35908;BME280;22003;50.320;8.054;2023-03-04T08:06:29;100401.97;;;2.03;89.76
35908;BME280;22003;50.320;8.054;2023-03-04T08:08:57;100412.94;;;2.41;88.80
35908;BME280;22003;50.320;8.054;2023-03-04T08:11:22;100403.88;;;2.51;87.21
35908;BME280;22003;50.320;8.054;2023-03-04T08:13:48;100445.00;;;2.73;87.83
35908;BME280;22003;50.320;8.054;2023-03-04T08:16:17;100432.00;;;2.70;86.97
35908;BME280;22003;50.320;8.054;2023-03-04T08:18:44;100450.50;;;2.88;88.14
35908;BME280;22003;50.320;8.054;2023-03-04T08:21:12;100455.03;;;2.85;88.00
35908;BME280;22003;50.320;8.054;2023-03-04T08:23:38;100435.56;;;2.92;87.98
35908;BME280;22003;50.320;8.054;2023-03-04T08:26:12;100454.03;;;3.12;86.61
35908;BME280;22003;50.320;8.054;2023-03-04T08:28:38;100422.06;;;2.79;87.14
35908;BME280;22003;50.320;8.054;2023-03-04T08:31:04;100440.56;;;2.48;86.76
35908;BME280;22003;50.320;8.054;2023-03-04T08:33:31;100448.78;;;2.89;87.25
35908;BME280;22003;50.320;8.054;2023-03-04T08:35:56;100351.78;;;2.45;86.50
35908;BME280;22003;50.320;8.054;2023-03-04T08:38:21;100365.09;;;2.62;85.93
35908;BME280;22003;50.320;8.054;2023-03-04T08:40:52;100394.00;;;2.83;86.89
35908;BME280;22003;50.320;8.054;2023-03-04T08:43:17;100441.19;;;2.81;87.59
35908;BME280;22003;50.320;8.054;2023-03-04T08:45:42;100389.28;;;2.69;86.86
35908;BME280;22003;50.320;8.054;2023-03-04T08:48:07;100423.94;;;3.01;85.87
35908;BME280;22003;50.320;8.054;2023-03-04T08:50:33;100409.91;;;2.78;85.64
35908;BME280;22003;50.320;8.054;2023-03-04T08:52:58;100377.72;;;2.51;85.80
35908;BME280;22003;50.320;8.054;2023-03-04T08:55:23;100420.72;;;2.92;86.08
35908;BME280;22003;50.320;8.054;2023-03-04T08:57:48;100412.94;;;2.91;86.07
35908;BME280;22003;50.320;8.054;2023-03-04T09:00:14;100438.56;;;3.06;86.26
35908;BME280;22003;50.320;8.054;2023-03-04T09:02:39;100427.19;;;3.31;84.58
35908;BME280;22003;50.320;8.054;2023-03-04T09:05:05;100422.22;;;2.75;86.64
35908;BME280;22003;50.320;8.054;2023-03-04T09:07:31;100441.81;;;2.63;86.88
35908;BME280;22003;50.320;8.054;2023-03-04T09:10:07;100367.97;;;2.80;86.20
35908;BME280;22003;50.320;8.054;2023-03-04T09:12:32;100442.88;;;2.82;86.91
35908;BME280;22003;50.320;8.054;2023-03-04T09:14:57;100424.28;;;2.67;88.03
35908;BME280;22003;50.320;8.054;2023-03-04T09:17:23;100448.78;;;2.89;87.61
35908;BME280;22003;50.320;8.054;2023-03-04T09:19:48;100424.06;;;2.73;88.16
35908;BME280;22003;50.320;8.054;2023-03-04T09:22:13;100403.34;;;2.67;88.93
35908;BME280;22003;50.320;8.054;2023-03-04T09:24:39;100424.22;;;3.16;86.12
35908;BME280;22003;50.320;8.054;2023-03-04T09:27:04;100422.59;;;2.89;86.78
35908;BME280;22003;50.320;8.054;2023-03-04T09:29:29;100437.31;;;3.40;87.21
35908;BME280;22003;50.320;8.054;2023-03-04T09:31:54;100454.50;;;3.47;84.83
35908;BME280;22003;50.320;8.054;2023-03-04T09:34:20;100430.94;;;3.24;85.32
35908;BME280;22003;50.320;8.054;2023-03-04T09:36:45;100386.25;;;2.56;85.82
35908;BME280;22003;50.320;8.054;2023-03-04T09:39:10;100439.34;;;3.08;86.63
35908;BME280;22003;50.320;8.054;2023-03-04T09:41:39;100460.63;;;3.69;86.33
35908;BME280;22003;50.320;8.054;2023-03-04T09:44:36;100464.81;;;3.28;85.50
35908;BME280;22003;50.320;8.054;2023-03-04T09:47:09;100454.41;;;3.50;85.63
35908;BME280;22003;50.320;8.054;2023-03-04T09:49:38;100415.84;;;3.30;84.88
35908;BME280;22003;50.320;8.054;2023-03-04T09:57:29;100429.16;;;3.24;87.74
35908;BME280;22003;50.320;8.054;2023-03-04T10:00:06;100453.47;;;3.75;85.16
35908;BME280;22003;50.320;8.054;2023-03-04T10:02:51;100434.69;;;3.16;85.18
35908;BME280;22003;50.320;8.054;2023-03-04T10:05:26;100448.59;;;3.42;86.51
35908;BME280;22003;50.320;8.054;2023-03-04T10:08:13;100407.66;;;3.39;84.93
35908;BME280;22003;50.320;8.054;2023-03-04T10:10:43;100438.06;;;3.65;83.92
35908;BME280;22003;50.320;8.054;2023-03-04T10:13:20;100412.63;;;3.91;83.75
35908;BME280;22003;50.320;8.054;2023-03-04T10:15:49;100369.84;;;3.68;83.13
35908;BME280;22003;50.320;8.054;2023-03-04T10:18:21;100397.63;;;3.51;84.46
35908;BME280;22003;50.320;8.054;2023-03-04T10:20:56;100439.78;;;4.10;83.01
35908;BME280;22003;50.320;8.054;2023-03-04T10:23:38;100439.88;;;3.87;83.50
35908;BME280;22003;50.320;8.054;2023-03-04T10:26:14;100399.78;;;3.16;84.70
35908;BME280;22003;50.320;8.054;2023-03-04T10:28:40;100447.78;;;3.40;85.53
35908;BME280;22003;50.320;8.054;2023-03-04T10:31:15;100439.38;;;3.77;83.96
35908;BME280;22003;50.320;8.054;2023-03-04T10:33:41;100422.53;;;3.83;83.54
35908;BME280;22003;50.320;8.054;2023-03-04T10:36:29;100433.66;;;4.11;83.28
35908;BME280;22003;50.320;8.054;2023-03-04T10:39:06;100417.31;;;3.83;83.23
35908;BME280;22003;50.320;8.054;2023-03-04T10:41:35;100397.69;;;3.93;82.72
35908;BME280;22003;50.320;8.054;2023-03-04T10:44:14;100442.75;;;4.03;83.32
35908;BME280;22003;50.320;8.054;2023-03-04T10:46:42;100429.00;;;4.40;81.96
35908;BME280;22003;50.320;8.054;2023-03-04T10:49:09;100423.44;;;4.26;82.66
35908;BME280;22003;50.320;8.054;2023-03-04T10:52:01;100437.59;;;4.21;82.83
35908;BME280;22003;50.320;8.054;2023-03-04T10:54:31;100432.53;;;4.39;81.82
35908;BME280;22003;50.320;8.054;2023-03-04T10:57:02;100400.88;;;4.21;81.66
35908;BME280;22003;50.320;8.054;2023-03-04T10:59:40;100399.19;;;3.77;81.44
35908;BME280;22003;50.320;8.054;2023-03-04T11:02:14;100341.44;;;3.80;82.24
35908;BME280;22003;50.320;8.054;2023-03-04T11:04:40;100401.88;;;4.60;80.86
35908;BME280;22003;50.320;8.054;2023-03-04T11:07:09;100430.25;;;4.52;81.94
35908;BME280;22003;50.320;8.054;2023-03-04T11:09:35;100419.69;;;4.73;80.88
35908;BME280;22003;50.320;8.054;2023-03-04T11:12:05;100412.28;;;4.63;79.89
35908;BME280;22003;50.320;8.054;2023-03-04T11:14:36;100415.88;;;4.40;81.25
35908;BME280;22003;50.320;8.054;2023-03-04T11:17:23;100427.41;;;4.76;81.57
35908;BME280;22003;50.320;8.054;2023-03-04T11:20:04;100397.38;;;4.63;81.19
35908;BME280;22003;50.320;8.054;2023-03-04T11:22:36;100367.41;;;3.86;82.41
35908;BME280;22003;50.320;8.054;2023-03-04T11:25:22;100380.03;;;4.18;81.77
35908;BME280;22003;50.320;8.054;2023-03-04T11:27:53;100410.41;;;4.85;81.08
35908;BME280;22003;50.320;8.054;2023-03-04T11:30:35;100372.94;;;4.82;80.14
35908;BME280;22003;50.320;8.054;2023-03-04T11:33:08;100366.00;;;4.81;79.35
35908;BME280;22003;50.320;8.054;2023-03-04T11:35:47;100402.00;;;4.97;79.11
35908;BME280;22003;50.320;8.054;2023-03-04T11:38:32;100371.22;;;5.01;77.31
35908;BME280;22003;50.320;8.054;2023-03-04T11:41:00;100392.25;;;5.57;78.14
35908;BME280;22003;50.320;8.054;2023-03-04T11:43:34;100393.84;;;5.60;78.21
35908;BME280;22003;50.320;8.054;2023-03-04T11:49:06;100374.28;;;6.21;75.33
35908;BME280;22003;50.320;8.054;2023-03-04T11:51:58;100334.28;;;5.97;74.26
35908;BME280;22003;50.320;8.054;2023-03-04T11:54:34;100334.13;;;6.00;74.84
35908;BME280;22003;50.320;8.054;2023-03-04T11:57:12;100335.44;;;6.08;74.39
35908;BME280;22003;50.320;8.054;2023-03-04T11:59:55;100342.78;;;6.19;74.04
35908;BME280;22003;50.320;8.054;2023-03-04T12:14:32;100341.31;;;5.96;74.45
35908;BME280;22003;50.320;8.054;2023-03-04T12:17:19;100304.16;;;5.85;74.76
35908;BME280;22003;50.320;8.054;2023-03-04T12:22:53;100327.84;;;6.02;75.15
35908;BME280;22003;50.320;8.054;2023-03-04T12:28:25;100325.69;;;5.93;74.75
35908;BME280;22003;50.320;8.054;2023-03-04T12:31:41;100324.97;;;5.90;75.78
35908;BME280;22003;50.320;8.054;2023-03-04T12:34:29;100318.84;;;5.89;75.85
35908;BME280;22003;50.320;8.054;2023-03-04T12:37:52;100320.38;;;6.12;75.36
35908;BME280;22003;50.320;8.054;2023-03-04T12:40:20;100320.81;;;6.03;75.94
35908;BME280;22003;50.320;8.054;2023-03-04T12:48:38;100264.59;;;5.52;75.70
35908;BME280;22003;50.320;8.054;2023-03-04T12:51:35;100292.34;;;5.94;77.04
35908;BME280;22003;50.320;8.054;2023-03-04T12:54:23;100296.59;;;6.14;77.00
35908;BME280;22003;50.320;8.054;2023-03-04T12:56:59;100279.31;;;5.91;76.29
35908;BME280;22003;50.320;8.054;2023-03-04T12:59:28;100268.81;;;5.73;77.70
35908;BME280;22003;50.320;8.054;2023-03-04T13:07:31;100269.69;;;5.91;77.47
35908;BME280;22003;50.320;8.054;2023-03-04T13:10:06;100244.13;;;5.59;76.90
35908;BME280;22003;50.320;8.054;2023-03-04T13:12:50;100286.38;;;5.90;77.48
35908;BME280;22003;50.320;8.054;2023-03-04T13:15:30;100289.66;;;6.13;76.71
35908;BME280;22003;50.320;8.054;2023-03-04T13:18:03;100288.16;;;5.90;77.04
35908;BME280;22003;50.320;8.054;2023-03-04T13:22:58;100281.59;;;5.98;76.79
35908;BME280;22003;50.320;8.054;2023-03-04T13:25:45;100277.44;;;6.12;77.45
35908;BME280;22003;50.320;8.054;2023-03-04T13:28:15;100251.06;;;5.96;76.33
35908;BME280;22003;50.320;8.054;2023-03-04T13:51:28;100273.66;;;5.81;79.28
35908;BME280;22003;50.320;8.054;2023-03-04T13:54:06;100281.41;;;5.67;78.39
35908;BME280;22003;50.320;8.054;2023-03-04T13:56:43;100234.44;;;5.42;79.95
35908;BME280;22003;50.320;8.054;2023-03-04T14:04:41;100265.09;;;5.24;81.66
35908;BME280;22003;50.320;8.054;2023-03-04T14:07:19;100239.53;;;5.27;81.69
35908;BME280;22003;50.320;8.054;2023-03-04T14:09:55;100261.25;;;5.48;81.74
35908;BME280;22003;50.320;8.054;2023-03-04T14:12:21;100240.94;;;5.16;82.02
35908;BME280;22003;50.320;8.054;2023-03-04T14:14:50;100266.59;;;5.47;82.19
35908;BME280;22003;50.320;8.054;2023-03-04T14:17:19;100226.25;;;5.48;82.02
35908;BME280;22003;50.320;8.054;2023-03-04T14:19:47;100199.19;;;5.28;81.68
35908;BME280;22003;50.320;8.054;2023-03-04T14:22:30;100253.25;;;5.86;81.78
35908;BME280;22003;50.320;8.054;2023-03-04T14:27:24;100254.63;;;5.76;81.59
35908;BME280;22003;50.320;8.054;2023-03-04T14:29:55;100224.03;;;5.57;81.65
35908;BME280;22003;50.320;8.054;2023-03-04T14:32:20;100254.59;;;5.77;81.44
35908;BME280;22003;50.320;8.054;2023-03-04T14:34:48;100201.50;;;5.35;82.77
35908;BME280;22003;50.320;8.054;2023-03-04T14:37:20;100239.41;;;5.82;81.40
35908;BME280;22003;50.320;8.054;2023-03-04T14:39:48;100214.66;;;5.69;81.57
35908;BME280;22003;50.320;8.054;2023-03-04T14:42:15;100106.66;;;5.04;81.90
35908;BME280;22003;50.320;8.054;2023-03-04T14:44:45;100198.78;;;5.88;81.10
35908;BME280;22003;50.320;8.054;2023-03-04T14:47:20;100188.69;;;5.63;80.67
35908;BME280;22003;50.320;8.054;2023-03-04T14:49:47;100179.13;;;5.62;81.43
35908;BME280;22003;50.320;8.054;2023-03-04T14:52:40;100178.50;;;5.57;81.70
35908;BME280;22003;50.320;8.054;2023-03-04T14:55:22;100172.63;;;5.52;81.83
35908;BME280;22003;50.320;8.054;2023-03-04T14:57:53;100220.75;;;5.35;83.98
35908;BME280;22003;50.320;8.054;2023-03-04T15:00:32;100225.81;;;5.21;85.13
35908;BME280;22003;50.320;8.054;2023-03-04T15:03:02;100221.97;;;5.28;85.31
35908;BME280;22003;50.320;8.054;2023-03-04T15:05:33;100209.25;;;5.55;84.27
35908;BME280;22003;50.320;8.054;2023-03-04T15:08:03;100133.22;;;4.98;84.18
35908;BME280;22003;50.320;8.054;2023-03-04T15:10:33;100099.28;;;4.76;84.50
35908;BME280;22003;50.320;8.054;2023-03-04T15:13:01;100207.63;;;5.16;86.12
35908;BME280;22003;50.320;8.054;2023-03-04T15:15:45;100181.00;;;4.88;86.69
35908;BME280;22003;50.320;8.054;2023-03-04T15:20:39;100157.47;;;4.86;86.63
35908;BME280;22003;50.320;8.054;2023-03-04T15:23:05;100209.72;;;5.46;86.29
35908;BME280;22003;50.320;8.054;2023-03-04T15:25:38;100177.34;;;5.63;85.38
35908;BME280;22003;50.320;8.054;2023-03-04T15:28:05;100176.53;;;5.26;85.66
35908;BME280;22003;50.320;8.054;2023-03-04T15:30:36;100148.97;;;5.52;84.83
35908;BME280;22003;50.320;8.054;2023-03-04T15:33:05;100179.88;;;5.64;84.43
35908;BME280;22003;50.320;8.054;2023-03-04T15:35:31;100144.94;;;5.27;84.38
35908;BME280;22003;50.320;8.054;2023-03-04T15:37:57;100084.97;;;4.84;85.30
35908;BME280;22003;50.320;8.054;2023-03-04T15:40:36;100199.34;;;5.43;86.02
35908;BME280;22003;50.320;8.054;2023-03-04T15:43:07;100197.50;;;5.45;86.16
35908;BME280;22003;50.320;8.054;2023-03-04T15:45:36;100194.47;;;5.35;86.16
35908;BME280;22003;50.320;8.054;2023-03-04T15:48:07;100190.78;;;5.56;85.75
35908;BME280;22003;50.320;8.054;2023-03-04T15:50:42;100129.00;;;5.13;85.58
35908;BME280;22003;50.320;8.054;2023-03-04T15:53:16;100182.06;;;5.39;85.72
35908;BME280;22003;50.320;8.054;2023-03-04T15:55:44;100134.09;;;5.16;86.34
35908;BME280;22003;50.320;8.054;2023-03-04T15:58:09;100177.38;;;5.26;86.01
35908;BME280;22003;50.320;8.054;2023-03-04T16:00:35;100157.28;;;5.08;86.40
35908;BME280;22003;50.320;8.054;2023-03-04T16:03:01;100134.91;;;4.82;87.48
35908;BME280;22003;50.320;8.054;2023-03-04T16:05:26;100139.81;;;5.07;86.15
35908;BME280;22003;50.320;8.054;2023-03-04T16:07:51;100160.66;;;5.10;86.39
35908;BME280;22003;50.320;8.054;2023-03-04T16:10:28;100191.00;;;5.35;86.80
35908;BME280;22003;50.320;8.054;2023-03-04T16:12:55;100188.84;;;5.43;86.29
35908;BME280;22003;50.320;8.054;2023-03-04T16:15:26;100092.00;;;4.83;86.11
35908;BME280;22003;50.320;8.054;2023-03-04T16:18:01;100157.50;;;5.03;86.71
35908;BME280;22003;50.320;8.054;2023-03-04T16:20:28;100189.41;;;5.13;86.97
35908;BME280;22003;50.320;8.054;2023-03-04T16:22:55;100184.91;;;5.34;86.92
35908;BME280;22003;50.320;8.054;2023-03-04T16:25:21;100150.16;;;5.10;85.82
35908;BME280;22003;50.320;8.054;2023-03-04T16:27:49;100113.69;;;4.87;86.15
35908;BME280;22003;50.320;8.054;2023-03-04T16:30:17;100187.00;;;5.27;86.53
35908;BME280;22003;50.320;8.054;2023-03-04T16:32:43;100120.16;;;4.80;87.13
35908;BME280;22003;50.320;8.054;2023-03-04T16:35:09;100116.94;;;4.92;86.72
35908;BME280;22003;50.320;8.054;2023-03-04T16:37:34;100174.72;;;5.09;86.96
35908;BME280;22003;50.320;8.054;2023-03-04T16:40:00;100142.13;;;4.77;87.63
35908;BME280;22003;50.320;8.054;2023-03-04T16:42:25;100164.81;;;4.97;87.92
35908;BME280;22003;50.320;8.054;2023-03-04T16:44:52;100159.97;;;4.89;88.23
35908;BME280;22003;50.320;8.054;2023-03-04T16:47:17;100156.94;;;4.97;87.92
35908;BME280;22003;50.320;8.054;2023-03-04T16:49:42;100152.59;;;4.79;88.02
35908;BME280;22003;50.320;8.054;2023-03-04T16:52:23;100161.28;;;4.98;88.13
35908;BME280;22003;50.320;8.054;2023-03-04T16:54:50;100087.75;;;4.44;88.63
35908;BME280;22003;50.320;8.054;2023-03-04T16:57:15;100181.34;;;4.99;89.20
35908;BME280;22003;50.320;8.054;2023-03-04T16:59:40;100144.66;;;4.61;89.30
35908;BME280;22003;50.320;8.054;2023-03-04T17:02:14;100190.78;;;5.03;89.41
35908;BME280;22003;50.320;8.054;2023-03-04T17:04:41;100161.53;;;4.74;89.41
35908;BME280;22003;50.320;8.054;2023-03-04T17:07:06;100140.56;;;4.56;90.02
35908;BME280;22003;50.320;8.054;2023-03-04T17:09:31;100146.16;;;4.67;90.57
35908;BME280;22003;50.320;8.054;2023-03-04T17:11:57;100099.72;;;4.31;90.94
35908;BME280;22003;50.320;8.054;2023-03-04T17:14:29;100140.81;;;4.31;91.41
35908;BME280;22003;50.320;8.054;2023-03-04T17:16:58;100178.47;;;4.48;92.29
35908;BME280;22003;50.320;8.054;2023-03-04T17:19:23;100118.94;;;4.13;92.59
35908;BME280;22003;50.320;8.054;2023-03-04T17:21:48;100174.50;;;4.59;92.23
35908;BME280;22003;50.320;8.054;2023-03-04T17:24:14;100070.44;;;4.03;91.67
35908;BME280;22003;50.320;8.054;2023-03-04T17:26:39;100176.50;;;4.72;91.53
35908;BME280;22003;50.320;8.054;2023-03-04T17:29:06;100067.53;;;3.90;91.02
35908;BME280;22003;50.320;8.054;2023-03-04T17:31:32;100133.09;;;4.09;93.13
35908;BME280;22003;50.320;8.054;2023-03-04T17:33:57;99999.00;;;3.60;92.98
35908;BME280;22003;50.320;8.054;2023-03-04T17:36:22;100114.25;;;4.19;91.44
35908;BME280;22003;50.320;8.054;2023-03-04T17:38:47;100157.53;;;4.66;92.32
35908;BME280;22003;50.320;8.054;2023-03-04T17:41:14;100152.09;;;4.52;91.48
35908;BME280;22003;50.320;8.054;2023-03-04T17:43:47;100147.47;;;4.38;91.17
35908;BME280;22003;50.320;8.054;2023-03-04T17:46:14;100125.03;;;4.51;91.65
35908;BME280;22003;50.320;8.054;2023-03-04T17:48:40;100139.84;;;4.33;92.46
35908;BME280;22003;50.320;8.054;2023-03-04T17:51:06;100120.41;;;4.37;91.21
35908;BME280;22003;50.320;8.054;2023-03-04T17:53:31;100116.50;;;4.27;91.92
35908;BME280;22003;50.320;8.054;2023-03-04T17:56:00;100175.00;;;4.48;92.68
35908;BME280;22003;50.320;8.054;2023-03-04T17:58:27;100173.53;;;4.61;92.32
35908;BME280;22003;50.320;8.054;2023-03-04T18:00:53;100178.44;;;4.50;93.23
35908;BME280;22003;50.320;8.054;2023-03-04T18:03:20;100175.06;;;4.65;92.86
35908;BME280;22003;50.320;8.054;2023-03-04T18:05:45;100150.84;;;4.41;92.97